This is the latest recevied weather packets stored in our database for station/object KG7QQL. If no packets are shown the sender has not sent any weather packets the latest 10 day(s).
| Time | Temp. | Humidity | Pressure | Rain* | Wind** | Luminosity | Snow |
|---|---|---|---|---|---|---|---|
| 1778023480 | 18.33° C | 71% | - | 0 mm | - | - | - |
| 1778023177 | 18.89° C | 71% | - | 0 mm | - | - | - |
| 1778022874 | 18.89° C | 71% | - | 0 mm | - | - | - |
| 1778022572 | 17.78° C | 74% | - | 0 mm | - | - | - |
| 1778022270 | 17.78° C | 73% | - | 0 mm | - | - | - |
| 1778021966 | 16.67° C | 74% | - | 0 mm | - | - | - |
| 1778021663 | 17.78° C | 72% | - | 0 mm | - | - | - |
| 1778021358 | 17.78° C | 74% | - | 0 mm | - | - | - |
| 1778021056 | 17.22° C | 73% | - | 0 mm | - | - | - |
| 1778020753 | 17.22° C | 74% | - | 0 mm | - | - | - |
| 1778020450 | 17.78° C | 74% | - | 0 mm | - | - | - |
| 1778020146 | 17.78° C | 73% | - | 0 mm | - | - | - |
| 1778019842 | 17.78° C | 74% | - | 0 mm | - | - | - |
| 1778019539 | 17.22° C | 75% | - | 0 mm | - | - | - |
| 1778019236 | 17.22° C | 74% | - | 0 mm | - | - | - |
| 1778018933 | 17.78° C | 75% | - | 0 mm | - | - | - |
| 1778018630 | 17.22° C | 74% | - | 0 mm | - | - | - |
| 1778018328 | 17.22° C | 74% | - | 0 mm | - | - | - |
| 1778018026 | 16.67° C | 75% | - | 0 mm | - | - | - |
| 1778017723 | 17.78° C | 74% | - | 0 mm | - | - | - |
| 1778017421 | 17.22° C | 75% | - | 0 mm | - | - | - |
| 1778017118 | 16.11° C | 76% | - | 0 mm | - | - | - |
| 1778016816 | 16.67° C | 76% | - | 0 mm | - | - | - |
| 1778016511 | 16.67° C | 76% | - | 0 mm | - | - | - |
| 1778016209 | 16.11° C | 78% | - | 0 mm | - | - | - |
* Rain latest hour (hover to see other rain measurements)
** Current wind speed in m/s (hover to see current wind gust speed)